createdAt,value
2023-02-02T00:01:21.178Z,1.05
2023-02-02T00:03:50.715Z,0.85
2023-02-02T00:06:20.305Z,1.23
2023-02-02T00:08:48.458Z,1.05
2023-02-02T00:11:16.826Z,0.90
2023-02-02T00:13:44.750Z,1.20
2023-02-02T00:16:34.628Z,1.00
2023-02-02T00:19:03.708Z,0.98
2023-02-02T00:21:33.099Z,0.88
2023-02-02T00:24:01.570Z,1.50
2023-02-02T00:26:29.634Z,1.20
2023-02-02T00:28:57.638Z,0.98
2023-02-02T00:31:25.509Z,1.02
2023-02-02T00:33:53.235Z,1.10
2023-02-02T00:36:21.901Z,1.00
2023-02-02T00:38:52.790Z,0.82
2023-02-02T00:41:20.891Z,1.17
2023-02-02T00:44:09.275Z,1.05
2023-02-02T00:46:39.312Z,1.70
2023-02-02T00:49:07.128Z,1.63
2023-02-02T00:51:34.926Z,1.75
2023-02-02T00:54:04.225Z,1.83
2023-02-02T00:56:32.132Z,2.03
2023-02-02T00:58:59.918Z,2.30
2023-02-02T01:01:27.820Z,2.35
2023-02-02T01:03:55.503Z,2.03
2023-02-02T01:06:23.311Z,2.92
2023-02-02T01:08:51.104Z,2.92
2023-02-02T01:11:20.475Z,3.03
2023-02-02T01:13:48.182Z,4.10
2023-02-02T01:16:16.085Z,3.38
2023-02-02T01:18:43.832Z,3.45
2023-02-02T01:21:13.066Z,3.85
2023-02-02T01:23:41.636Z,3.92
2023-02-02T01:26:10.631Z,3.97
2023-02-02T01:28:40.191Z,4.22
2023-02-02T01:31:09.729Z,3.78
2023-02-02T01:33:37.491Z,4.05
2023-02-02T01:36:08.036Z,4.00
2023-02-02T01:38:35.967Z,4.10
2023-02-02T01:41:05.131Z,4.03
2023-02-02T01:43:53.340Z,4.05
2023-02-02T01:46:22.120Z,4.03
2023-02-02T01:48:52.276Z,3.80
2023-02-02T01:51:22.733Z,4.15
2023-02-02T01:53:52.524Z,4.00
2023-02-02T01:56:26.170Z,3.63
2023-02-02T01:58:55.365Z,3.70
2023-02-02T02:01:23.089Z,4.32
2023-02-02T02:03:50.919Z,3.90
2023-02-02T02:06:20.236Z,4.20
2023-02-02T02:08:52.446Z,3.27
2023-02-02T02:11:20.429Z,3.33
2023-02-02T02:14:05.951Z,3.73
2023-02-02T02:16:44.163Z,3.58
2023-02-02T02:19:22.372Z,3.67
2023-02-02T02:22:14.995Z,3.10
2023-02-02T02:25:32.915Z,4.13
2023-02-02T02:28:21.865Z,4.47
2023-02-02T02:31:09.437Z,3.30
2023-02-02T02:33:42.342Z,4.18
2023-02-02T02:36:18.262Z,4.60
2023-02-02T02:38:51.754Z,4.00
2023-02-02T02:41:22.619Z,4.40
2023-02-02T02:43:54.046Z,3.88
2023-02-02T02:46:22.025Z,3.47
2023-02-02T02:48:51.308Z,3.70
2023-02-02T02:51:45.469Z,4.10
2023-02-02T02:54:14.081Z,3.70
2023-02-02T02:56:50.233Z,3.50
2023-02-02T02:59:23.670Z,3.30
2023-02-02T03:01:55.871Z,3.70
2023-02-02T03:04:29.892Z,3.53
2023-02-02T03:07:01.516Z,3.33
2023-02-02T03:09:34.834Z,3.00
2023-02-02T03:12:02.679Z,3.75
2023-02-02T03:14:30.395Z,3.65
2023-02-02T03:16:58.141Z,3.97
2023-02-02T03:19:27.456Z,3.63
2023-02-02T03:21:55.189Z,3.75
2023-02-02T03:24:22.962Z,3.47
2023-02-02T03:26:50.917Z,3.58
2023-02-02T03:29:19.052Z,3.35
2023-02-02T03:31:47.722Z,3.28
2023-02-02T03:34:15.393Z,3.05
2023-02-02T03:36:44.523Z,3.17
2023-02-02T03:39:12.279Z,3.07
2023-02-02T03:41:39.967Z,3.20
2023-02-02T03:44:07.793Z,3.70
2023-02-02T03:46:35.583Z,2.72
2023-02-02T03:49:03.402Z,2.87
2023-02-02T03:51:31.077Z,2.72
2023-02-02T03:54:00.199Z,2.60
2023-02-02T03:56:27.969Z,2.75
2023-02-02T03:58:55.722Z,2.47
2023-02-02T04:01:29.400Z,3.17
2023-02-02T04:03:57.591Z,3.03
2023-02-02T04:06:25.759Z,3.22
2023-02-02T04:08:53.895Z,3.50
2023-02-02T04:11:23.025Z,3.25
2023-02-02T04:13:50.735Z,2.90
2023-02-02T04:16:18.466Z,3.17
2023-02-02T04:18:46.163Z,3.05
2023-02-02T04:21:13.884Z,3.20
2023-02-02T04:23:41.618Z,3.47
2023-02-02T04:26:11.506Z,2.80
2023-02-02T04:28:40.584Z,3.05
2023-02-02T04:31:08.405Z,2.75
2023-02-02T04:33:36.563Z,2.80
2023-02-02T04:36:04.997Z,2.67
2023-02-02T04:38:32.920Z,2.90
2023-02-02T04:41:00.619Z,2.75
2023-02-02T04:43:28.475Z,3.00
2023-02-02T04:45:58.253Z,3.28
2023-02-02T04:48:25.977Z,3.30
2023-02-02T04:50:59.756Z,3.03
2023-02-02T04:53:27.419Z,3.80
2023-02-02T04:55:55.051Z,3.95
2023-02-02T04:58:23.023Z,4.78
2023-02-02T05:00:50.736Z,4.82
2023-02-02T05:03:19.869Z,6.60
2023-02-02T05:05:48.598Z,7.40
2023-02-02T05:08:16.255Z,7.10
2023-02-02T05:10:44.036Z,7.65
2023-02-02T05:13:11.779Z,8.17
2023-02-02T05:15:39.508Z,8.18
2023-02-02T05:18:07.237Z,8.80
2023-02-02T05:20:36.403Z,8.70
2023-02-02T05:23:04.124Z,8.85
2023-02-02T05:25:31.804Z,8.40
2023-02-02T05:27:59.860Z,9.15
2023-02-02T05:30:27.531Z,8.95
2023-02-02T05:32:55.173Z,9.70
2023-02-02T05:35:23.222Z,9.68
2023-02-02T05:37:52.706Z,9.73
2023-02-02T05:40:20.396Z,9.88
2023-02-02T05:42:49.579Z,10.05
2023-02-02T05:45:17.404Z,10.20
2023-02-02T05:47:45.101Z,9.45
2023-02-02T05:50:12.836Z,9.73
2023-02-02T05:52:41.695Z,9.80
2023-02-02T05:55:11.409Z,8.80
2023-02-02T05:57:39.178Z,9.05
2023-02-02T06:00:08.422Z,8.23
2023-02-02T06:02:36.103Z,9.48
2023-02-02T06:05:03.807Z,8.60
2023-02-02T06:07:31.544Z,9.23
2023-02-02T06:09:59.399Z,8.02
2023-02-02T06:12:28.526Z,7.63
2023-02-02T06:14:56.206Z,7.50
2023-02-02T06:17:23.902Z,7.40
2023-02-02T06:19:51.647Z,6.88
2023-02-02T06:22:19.368Z,8.30
2023-02-02T06:24:47.005Z,8.48
2023-02-02T06:27:14.771Z,7.93
2023-02-02T06:29:43.872Z,7.30
2023-02-02T06:32:11.741Z,7.38
2023-02-02T06:34:39.500Z,7.20
2023-02-02T06:37:07.740Z,7.50
2023-02-02T06:39:35.470Z,8.40
2023-02-02T06:42:19.276Z,7.75
2023-02-02T06:44:50.111Z,7.57
2023-02-02T06:47:18.136Z,7.25
2023-02-02T06:49:45.882Z,7.60
2023-02-02T06:52:13.559Z,7.43
2023-02-02T06:54:41.255Z,7.25
2023-02-02T06:57:09.321Z,7.28
2023-02-02T06:59:37.073Z,6.88
2023-02-02T07:02:06.179Z,7.63
2023-02-02T07:04:33.919Z,7.82
2023-02-02T07:07:01.649Z,8.32
2023-02-02T07:09:29.411Z,8.15
2023-02-02T07:11:59.016Z,8.07
2023-02-02T07:14:27.154Z,7.83
2023-02-02T07:16:54.964Z,7.50
2023-02-02T07:19:24.169Z,7.60
2023-02-02T07:21:51.832Z,7.40
2023-02-02T07:24:19.560Z,7.43
2023-02-02T07:26:47.229Z,7.78
2023-02-02T07:29:15.292Z,7.35
2023-02-02T07:31:43.276Z,6.90
2023-02-02T07:34:10.994Z,6.40
2023-02-02T07:36:40.032Z,7.28
2023-02-02T07:39:07.961Z,6.90
2023-02-02T07:41:37.057Z,6.93
2023-02-02T07:44:05.855Z,7.10
2023-02-02T07:46:33.752Z,6.50
2023-02-02T07:49:01.644Z,6.68
2023-02-02T07:51:29.333Z,6.97
2023-02-02T07:53:59.549Z,6.93
2023-02-02T07:56:28.785Z,7.57
2023-02-02T07:58:57.480Z,6.53
2023-02-02T08:01:26.359Z,6.70
2023-02-02T08:03:55.435Z,7.28
2023-02-02T08:06:25.983Z,7.20
2023-02-02T08:08:53.624Z,7.63
2023-02-02T08:11:23.891Z,7.10
2023-02-02T08:13:52.830Z,7.15
2023-02-02T08:16:21.269Z,6.95
2023-02-02T08:18:49.197Z,6.53
2023-02-02T08:21:17.558Z,6.00
